This is the latest recevied weather packets stored in our database for station/object E23XBQ-1. If no packets are shown the sender has not sent any weather packets the latest 1 day(s).
| Time | Temp. | Humidity | Pressure | Rain* | Wind** | Luminosity | Snow |
|---|---|---|---|---|---|---|---|
| 1778062019 | 34.44° C | 57% | 967 hPa | - | 0 m/s | 0 W/m² | - |
| 1778061394 | 35° C | 56% | 967 hPa | - | 0 m/s | 0 W/m² | - |
| 1778060770 | 34.44° C | 59% | 967 hPa | - | 0 m/s | 0 W/m² | - |
| 1778060230 | 33.89° C | 66% | 967 hPa | - | 0 m/s | 0 W/m² | - |
| 1778059605 | 33.33° C | 68% | 967 hPa | - | 0 m/s | 0 W/m² | - |
| 1778058980 | 33.33° C | 66% | 968 hPa | - | 0 m/s | 0 W/m² | - |
| 1778058355 | 32.78° C | 68% | 968 hPa | - | 0 m/s | 0 W/m² | - |
| 1778057729 | 32.78° C | 70% | 968 hPa | - | 0 m/s | 0 W/m² | - |
| 1778057105 | 33.33° C | 69% | 968 hPa | - | 0 m/s | 0 W/m² | - |
| 1778056480 | 31.67° C | 70% | 968 hPa | - | 0 m/s | 0 W/m² | - |
| 1778055855 | 30.56° C | 71% | 969 hPa | - | 0 m/s | 0 W/m² | - |
| 1778055230 | 32.22° C | 59% | 969 hPa | - | 0 m/s | 0 W/m² | - |
| 1778054606 | 33.89° C | 51% | 969 hPa | - | 0 m/s | 0 W/m² | - |
| 1778053981 | 35.56° C | 48% | 968 hPa | - | 0 m/s | 0 W/m² | - |
| 1778053355 | 36.67° C | 43% | 968 hPa | - | 0 m/s | 0 W/m² | - |
| 1778052730 | 37.22° C | 41% | 968 hPa | - | 0 m/s | 0 W/m² | - |
| 1778052105 | 38.33° C | 39% | 968 hPa | - | 0 m/s | 0 W/m² | - |
| 1778051481 | 38.89° C | 38% | 969 hPa | - | 0 m/s | 0 W/m² | - |
| 1778050856 | 39.44° C | 37% | 969 hPa | - | 0 m/s | 0 W/m² | - |
| 1778050232 | 39.44° C | 36% | 969 hPa | - | 0 m/s | 0 W/m² | - |
| 1778049607 | 39.44° C | 38% | 969 hPa | - | 0 m/s | 0 W/m² | - |
| 1778048982 | 38.89° C | 39% | 970 hPa | - | 0 m/s | 0 W/m² | - |
| 1778048541 | 38.89° C | 39% | 970 hPa | - | 0 m/s | 0 W/m² | - |
| 1778047916 | 38.89° C | 39% | 970 hPa | - | 0 m/s | 0 W/m² | - |
| 1778047292 | 38.33° C | 39% | 970 hPa | - | 0 m/s | 0 W/m² | - |
* Rain since midnight (hover to see other rain measurements)
** Current wind speed in m/s (hover to see current wind gust speed)